Loreto International Airport

MMLT · Kalifornia Dolna Południowa, Meksyk

Historia METAR MMLT · Loreto International Airport

Poniżej widzisz METAR-y z ostatnich kilku dni. Wybierz rok, aby przeglądać starsze METAR-y, począwszy od roku 2007.

18 czerwca 2024

Czas Kod Pogoda Temp. Widoczność Sufit Wiatr METAR/SPECI
07:00
V
28 °C 10 mi - 360° 360° 0 kt METAR MMLT 181400Z RTD 00000KT 10SM SKC 28/18 A2965 RMK RTS

17 czerwca 2024

Czas Kod Pogoda Temp. Widoczność Sufit Wiatr METAR/SPECI
18:40
V
30 °C 8 mi - 160° 160° 6 kt METAR MMLT 180140Z 16006KT 8SM SKC 30/22 A2958 RMK HZY
17:40
V
30 °C 8 mi - 160° 160° 10 kt METAR MMLT 180040Z 16010KT 8SM SKC 30/23 A2957 RMK HZY
16:40
V
31 °C 8 mi - 150° 150° 14 kt METAR MMLT 172340Z 15014KT 8SM SKC 31/22 A2958 RMK SLP017 HZY
15:40
V
31 °C 8 mi - 160° 160° 16 kt METAR MMLT 172240Z 16016KT 8SM SKC 31/20 A2960 RMK HZY
14:41
V
33 °C 10 mi - 160° 160° 10 kt METAR MMLT 172141Z 16010KT 10SM SKC 33/22 A2962
13:41
V
35 °C 10 mi - 160° 160° 13 kt METAR MMLT 172041Z 16013KT 10SM SKC 35/17 A2964 RMK SLP037
12:40
V
32 °C 10 mi - 160° 160° 10 kt METAR MMLT 171940Z 16010KT 10SM SKC 32/21 A2965
11:44
V
33 °C 10 mi - 100° 100° 6 kt METAR MMLT 171844Z 10006KT 10SM SKC 33/20 A2967
10:50
V
33 °C 10 mi - 100° 100° 10 kt METAR MMLT 171750Z 10010KT 10SM SKC 33/18 A2967 RMK SLP047
09:41
V
33 °C 10 mi - 100° 100° 6 kt METAR MMLT 171641Z 10006KT 10SM SKC 33/18 A2966 RMK HZY
08:48
V
32 °C 10 mi - 070° 070° 6 kt METAR MMLT 171548Z 07006KT 10SM SKC 32/18 A2966 RMK HZY
07:54
V
31 °C 10 mi - 360° 360° 0 kt METAR MMLT 171454Z 00000KT 10SM SKC 31/16 A2965 RMK SLP041 HZY
06:58
V
27 °C 10 mi - 360° 360° 0 kt METAR MMLT 171358Z RTD 00000KT 10SM SKC 27/18 A2964 RMK HZY RTS

16 czerwca 2024

Czas Kod Pogoda Temp. Widoczność Sufit Wiatr METAR/SPECI
18:40
V
30 °C 8 mi - 160° 160° 6 kt METAR MMLT 170140Z 16006KT 8SM SKC 30/21 A2959 RMK HZY
17:40
V
32 °C 8 mi - 160° 160° 10 kt METAR MMLT 170040Z 16010KT 8SM SKC 32/19 A2959 RMK HZY
16:40
V
31 °C 8 mi - 160° 160° 10 kt METAR MMLT 162340Z 16010KT 8SM SKC 31/21 A2961 RMK SLP027 HZY
15:40
V
32 °C 8 mi - 160° 160° 6 kt METAR MMLT 162240Z 16006KT 8SM SKC 32/23 A2963 RMK HZY
14:40
V
32 °C 8 mi - 140° 140° 10 kt METAR MMLT 162140Z 14010KT 8SM SKC 32/21 A2964 RMK HZY
13:40
V
32 °C 8 mi - 160° 160° 8 kt METAR MMLT 162040Z 16008KT 8SM SKC 32/21 A2966 RMK SLP044 HZY
12:40
V
31 °C 9 mi - 140° 140° 12 kt METAR MMLT 161940Z 14012KT 9SM SKC 31/21 A2969 RMK HZY
11:52
V
31 °C 9 mi - 120° 120° 9 kt METAR MMLT 161852Z 12009KT 9SM SKC 31/23 A2970 RMK HZY
10:44
V
30 °C 9 mi - 100° 100° 5 kt METAR MMLT 161744Z 10005KT 9SM SKC 30/22 A2972 RMK SLP064 HZY
09:50
V
31 °C 9 mi - 100° 100° 7 kt METAR MMLT 161650Z 10007KT 9SM SKC 31/23 A2970 RMK HZY
09:10
V
30 °C 9 mi - 100° 100° 9 kt METAR MMLT 161610Z RTD 10009KT 9SM SKC 30/24 A2970 RMK HZY
07:52
V
28 °C 9 mi - 360° 360° 0 kt METAR MMLT 161452Z 00000KT 9SM SKC 28/18 A2971 RMK SLP061 HZY
07:02
V
27 °C 9 mi - 360° 360° 0 kt METAR MMLT 161402Z RTD 00000KT 9SM SKC 27/21 A2969 RMK HZY RTS
Zgłoś zmianę